MED108 LIPX-LIRF
Flight info
| Callsign | MED108 |
|---|---|
| Flight time | N/A |
| Altitude | 35000 |
| Route | LUMAV M726 GAVRA Y345 RITEB |
| Aircraft | B738/M-SDE2E3FGHIRWXY/LB1 |
Departure
| Time | N/A |
|---|---|
| Airport | Verona Villafranca Valerio Catullo Airport (LIPX) |
Arrival
| Time | 2026-05-04 09:49 |
|---|---|
| Airport | Rome–Fiumicino Leonardo da Vinci International Airport (LIRF) |
| Time | Latitude | Longitude | Altitude | Speed | Heading |
|---|---|---|---|---|---|
| 2026-05-04 09:46 | 41.86366 | 12.25409 | 461 ft | 135 kts | 163° |
| 2026-05-04 09:46 | 41.85469 | 12.25784 | 260 ft | 135 kts | 163° |
| 2026-05-04 09:46 | 41.84587 | 12.26154 | 101 ft | 131 kts | 163° |
| 2026-05-04 09:47 | 41.83773 | 12.26481 | 21 ft | 110 kts | 165° |
| 2026-05-04 09:47 | 41.83225 | 12.26718 | 10 ft | 53 kts | 162° |
| 2026-05-04 09:49 | 41.81898 | 12.26957 | 12 ft | 27 kts | 163° |
| 2026-05-04 09:49 | 41.81726 | 12.27025 | 11 ft | 25 kts | 163° |
| 2026-05-04 09:49 | 41.81566 | 12.27089 | 12 ft | 23 kts | 163° |
| 2026-05-04 09:51 | 41.80713 | 12.27296 | 12 ft | 19 kts | 204° |
| 2026-05-04 09:51 | 41.80638 | 12.27155 | 12 ft | 19 kts | 248° |
| 2026-05-04 09:51 | 41.80593 | 12.26995 | 12 ft | 18 kts | 249° |
| 2026-05-04 09:51 | 41.80550 | 12.26841 | 13 ft | 17 kts | 249° |
| 2026-05-04 09:52 | 41.80508 | 12.26691 | 15 ft | 17 kts | 250° |
| 2026-05-04 09:52 | 41.80469 | 12.26547 | 15 ft | 16 kts | 250° |
| 2026-05-04 09:52 | 41.80431 | 12.26409 | 14 ft | 16 kts | 250° |
| 2026-05-04 09:52 | 41.80394 | 12.26275 | 14 ft | 15 kts | 250° |
| 2026-05-04 09:53 | 41.80356 | 12.26150 | 15 ft | 14 kts | 236° |
| 2026-05-04 09:53 | 41.80278 | 12.26075 | 13 ft | 14 kts | 206° |
| 2026-05-04 09:53 | 41.80199 | 12.26071 | 13 ft | 12 kts | 120° |
| 2026-05-04 09:53 | 41.80139 | 12.26093 | 13 ft | 8 kts | 201° |
| 2026-05-04 09:54 | 41.80117 | 12.26081 | 14 ft | 0 kts | 203° |